createdAt,value
2018-10-21T00:02:27.544Z,99.90
2018-10-21T00:04:55.074Z,99.90
2018-10-21T00:07:22.771Z,99.90
2018-10-21T00:09:50.425Z,99.90
2018-10-21T00:12:18.062Z,99.90
2018-10-21T00:14:45.695Z,99.90
2018-10-21T00:17:13.343Z,99.90
2018-10-21T00:19:40.959Z,99.90
2018-10-21T00:22:08.584Z,99.90
2018-10-21T00:24:36.202Z,99.90
2018-10-21T00:27:04.697Z,99.90
2018-10-21T00:29:32.309Z,99.90
2018-10-21T00:31:59.946Z,99.90
2018-10-21T00:36:55.191Z,99.90
2018-10-21T00:39:22.818Z,99.90
2018-10-21T00:41:50.460Z,99.90
2018-10-21T00:44:18.115Z,99.90
2018-10-21T00:46:45.746Z,99.90
2018-10-21T00:49:13.390Z,99.90
2018-10-21T00:54:14.543Z,99.90
2018-10-21T00:56:42.994Z,99.90
2018-10-21T00:59:10.874Z,99.90
2018-10-21T01:01:38.548Z,99.90
2018-10-21T01:04:06.273Z,99.90
2018-10-21T01:06:33.922Z,99.90
2018-10-21T01:09:02.016Z,99.90
2018-10-21T01:11:29.583Z,99.90
2018-10-21T01:13:57.243Z,99.90
2018-10-21T01:16:24.966Z,99.90
2018-10-21T01:18:52.666Z,99.90
2018-10-21T01:21:20.303Z,99.90
2018-10-21T01:23:47.922Z,99.90
2018-10-21T01:26:15.562Z,99.90
2018-10-21T01:28:43.175Z,99.90
2018-10-21T01:31:10.865Z,99.90
2018-10-21T01:33:38.512Z,99.90
2018-10-21T01:36:06.253Z,99.90
2018-10-21T01:41:01.335Z,99.90
2018-10-21T01:43:30.137Z,99.90
2018-10-21T01:45:58.098Z,99.90
2018-10-21T01:48:26.814Z,99.90
2018-10-21T01:50:54.451Z,99.90
2018-10-21T01:53:22.442Z,99.90
2018-10-21T01:55:50.163Z,99.90
2018-10-21T02:00:45.493Z,99.90
2018-10-21T02:03:13.221Z,99.90
2018-10-21T02:05:41.742Z,99.90
2018-10-21T02:08:09.402Z,99.90
2018-10-21T02:10:37.071Z,99.90
2018-10-21T02:13:04.814Z,99.90
2018-10-21T02:15:32.446Z,99.90
2018-10-21T02:20:27.851Z,99.90
2018-10-21T02:22:55.491Z,99.90
2018-10-21T02:25:23.123Z,99.90
2018-10-21T02:27:51.383Z,99.90
2018-10-21T02:30:26.940Z,99.90
2018-10-21T02:32:55.033Z,99.90
2018-10-21T02:35:22.940Z,99.90
2018-10-21T02:41:29.077Z,99.90
2018-10-21T02:43:56.751Z,99.90
2018-10-21T02:46:24.591Z,99.90
2018-10-21T02:48:53.283Z,99.90
2018-10-21T02:51:20.951Z,99.90
2018-10-21T02:56:16.162Z,99.90
2018-10-21T02:58:43.773Z,99.90
2018-10-21T03:01:11.418Z,99.90
2018-10-21T03:06:07.062Z,99.90
2018-10-21T03:11:02.661Z,99.90
2018-10-21T03:13:30.707Z,99.90
2018-10-21T03:15:58.350Z,99.90
2018-10-21T03:18:25.999Z,99.90
2018-10-21T03:23:21.388Z,99.90
2018-10-21T03:25:49.017Z,99.90
2018-10-21T03:28:16.723Z,99.90
2018-10-21T03:33:12.072Z,99.90
2018-10-21T03:35:39.570Z,99.90
2018-10-21T03:38:07.183Z,99.90
2018-10-21T03:43:02.371Z,99.90
2018-10-21T03:45:30.031Z,99.90
2018-10-21T03:47:57.671Z,99.90
2018-10-21T03:50:26.330Z,99.90
2018-10-21T03:52:54.023Z,99.90
2018-10-21T03:55:21.883Z,99.90
2018-10-21T04:00:17.058Z,99.90
2018-10-21T04:02:44.794Z,99.90
2018-10-21T04:05:12.550Z,99.90
2018-10-21T04:10:08.111Z,99.90
2018-10-21T04:12:35.733Z,99.90
2018-10-21T04:22:26.043Z,99.90
2018-10-21T04:24:53.674Z,99.90
2018-10-21T04:27:21.343Z,99.90
2018-10-21T04:29:48.962Z,99.90
2018-10-21T04:34:44.171Z,99.90
2018-10-21T04:39:28.036Z,99.90
2018-10-21T04:41:55.699Z,99.90
2018-10-21T04:44:23.326Z,99.90
2018-10-21T04:49:18.591Z,99.90
2018-10-21T04:51:46.215Z,99.90
2018-10-21T04:54:13.854Z,99.90
2018-10-21T04:56:41.489Z,99.90
2018-10-21T05:01:36.673Z,99.90
2018-10-21T05:04:04.414Z,99.90
2018-10-21T05:06:32.002Z,99.90
2018-10-21T05:08:59.622Z,99.90
2018-10-21T05:11:27.226Z,99.90
2018-10-21T05:13:54.837Z,99.90
2018-10-21T05:16:22.484Z,99.90
2018-10-21T05:18:50.146Z,99.90
2018-10-21T05:21:17.787Z,99.90
2018-10-21T05:23:45.420Z,99.90
2018-10-21T05:26:13.022Z,99.90
2018-10-21T05:31:08.179Z,99.90
2018-10-21T05:33:35.814Z,99.90
2018-10-21T05:40:58.514Z,99.90
2018-10-21T05:43:26.150Z,99.90
2018-10-21T05:45:53.812Z,99.90
2018-10-21T05:48:21.430Z,99.90
2018-10-21T05:50:49.083Z,99.90
2018-10-21T05:53:16.694Z,99.90
2018-10-21T05:55:44.346Z,99.90
2018-10-21T05:58:11.952Z,99.90
2018-10-21T06:00:39.598Z,99.90
2018-10-21T06:03:07.229Z,99.90
2018-10-21T06:05:40.314Z,99.90
2018-10-21T06:08:08.115Z,99.90
2018-10-21T06:10:35.791Z,99.90
2018-10-21T06:13:03.483Z,99.90
2018-10-21T06:15:31.110Z,99.90
2018-10-21T06:17:58.814Z,99.90
2018-10-21T06:20:28.982Z,99.90
2018-10-21T06:22:56.616Z,99.90
2018-10-21T06:25:24.251Z,99.90
2018-10-21T06:27:51.907Z,99.90
2018-10-21T06:30:19.539Z,99.90
2018-10-21T06:32:47.180Z,99.90
2018-10-21T06:38:00.851Z,99.90
2018-10-21T06:42:56.032Z,99.90
2018-10-21T06:45:23.730Z,99.90
2018-10-21T06:47:51.275Z,99.90
2018-10-21T06:50:20.010Z,99.90
2018-10-21T06:52:47.970Z,99.90
2018-10-21T06:55:15.563Z,99.90
2018-10-21T06:57:44.058Z,99.90
2018-10-21T07:00:11.649Z,99.90
2018-10-21T07:02:39.254Z,99.90
2018-10-21T07:05:18.583Z,99.90
2018-10-21T07:10:13.777Z,99.90
2018-10-21T07:12:41.608Z,99.90
2018-10-21T07:15:09.214Z,99.90
2018-10-21T07:17:36.809Z,99.90
2018-10-21T07:20:04.785Z,99.90
2018-10-21T07:22:32.424Z,99.90
2018-10-21T07:25:00.039Z,99.90
2018-10-21T07:27:27.634Z,99.90
2018-10-21T07:29:55.267Z,99.90
2018-10-21T07:32:22.867Z,99.90
2018-10-21T07:34:50.462Z,99.90
2018-10-21T07:37:18.042Z,99.90
2018-10-21T07:39:45.646Z,99.90
2018-10-21T07:42:13.228Z,99.90
2018-10-21T07:44:40.826Z,99.90
2018-10-21T07:47:08.466Z,99.90
2018-10-21T07:49:36.115Z,99.90
2018-10-21T07:52:03.798Z,99.90
2018-10-21T07:54:31.403Z,99.90
2018-10-21T07:56:59.007Z,99.90
2018-10-21T07:59:26.612Z,99.90
2018-10-21T08:01:54.235Z,99.90
2018-10-21T08:04:21.830Z,99.90
2018-10-21T08:07:00.783Z,99.90
2018-10-21T08:09:28.370Z,99.90
2018-10-21T08:11:55.981Z,99.90
2018-10-21T08:14:23.586Z,99.90
2018-10-21T08:16:51.198Z,99.90
2018-10-21T08:19:18.785Z,99.90
2018-10-21T08:21:46.391Z,99.90
2018-10-21T08:24:14.006Z,99.90
2018-10-21T08:26:41.655Z,99.90
2018-10-21T08:29:09.250Z,99.90
2018-10-21T08:31:36.874Z,99.90
2018-10-21T08:34:04.669Z,99.90
2018-10-21T08:36:32.295Z,99.80
2018-10-21T08:38:59.912Z,99.20
2018-10-21T08:41:27.535Z,98.90
2018-10-21T08:43:55.145Z,99.00
2018-10-21T08:46:22.920Z,99.40
2018-10-21T08:48:50.537Z,99.30
2018-10-21T08:51:18.199Z,99.10
2018-10-21T08:53:45.922Z,98.50
2018-10-21T08:56:13.514Z,98.20
2018-10-21T08:58:41.159Z,98.10
2018-10-21T09:01:08.802Z,98.20
2018-10-21T09:03:36.778Z,98.00
2018-10-21T09:06:04.478Z,97.90
2018-10-21T09:08:32.103Z,97.80
2018-10-21T09:10:59.777Z,97.30
2018-10-21T09:13:27.395Z,97.50
2018-10-21T09:15:55.023Z,97.50
2018-10-21T09:18:22.635Z,97.50
2018-10-21T09:20:50.275Z,97.70
2018-10-21T09:23:17.889Z,97.40
2018-10-21T09:25:45.503Z,97.20
2018-10-21T09:28:13.155Z,97.50
2018-10-21T09:30:40.747Z,97.30
2018-10-21T09:33:08.411Z,96.90
2018-10-21T09:35:36.010Z,96.80
2018-10-21T09:38:03.821Z,99.90
2018-10-21T09:40:31.555Z,97.60
2018-10-21T09:42:59.269Z,97.30
2018-10-21T09:45:26.926Z,96.60
2018-10-21T09:47:55.366Z,96.50
2018-10-21T09:50:23.031Z,95.40
2018-10-21T09:52:50.682Z,96.50
2018-10-21T09:55:20.171Z,98.50
2018-10-21T09:57:48.409Z,96.40
2018-10-21T10:00:21.615Z,95.70
2018-10-21T10:03:04.019Z,96.10
2018-10-21T10:05:31.730Z,96.60
2018-10-21T10:07:59.361Z,96.50
2018-10-21T10:10:26.963Z,96.10
2018-10-21T10:12:54.575Z,96.70
2018-10-21T10:15:22.311Z,96.80
2018-10-21T10:17:50.033Z,96.60
2018-10-21T10:20:17.607Z,96.40
2018-10-21T10:22:45.262Z,95.40
2018-10-21T10:25:12.906Z,95.20
2018-10-21T10:27:40.818Z,96.00
2018-10-21T10:30:09.787Z,94.80
2018-10-21T10:32:37.618Z,94.00
2018-10-21T10:35:05.832Z,94.70
2018-10-21T10:37:33.449Z,95.20
2018-10-21T10:40:01.083Z,94.60
2018-10-21T10:42:28.719Z,94.10
2018-10-21T10:44:56.333Z,94.20
2018-10-21T10:47:23.906Z,94.80
2018-10-21T10:49:51.557Z,94.60
2018-10-21T10:52:19.178Z,94.50
2018-10-21T10:54:46.969Z,94.60
2018-10-21T10:57:14.414Z,94.10
2018-10-21T10:59:42.051Z,94.30
2018-10-21T11:02:09.710Z,94.80
2018-10-21T11:04:37.366Z,93.90
2018-10-21T11:07:05.497Z,93.30
2018-10-21T11:09:33.124Z,93.90
2018-10-21T11:12:00.778Z,93.90
2018-10-21T11:14:28.400Z,93.50
2018-10-21T11:16:56.004Z,93.40
2018-10-21T11:19:24.682Z,93.40
2018-10-21T11:21:52.389Z,93.80
2018-10-21T11:24:19.962Z,93.70
2018-10-21T11:26:47.908Z,93.70
2018-10-21T11:29:15.414Z,93.60
2018-10-21T11:31:43.010Z,93.50
2018-10-21T11:34:10.625Z,93.40
2018-10-21T11:36:38.259Z,93.40
2018-10-21T11:39:07.182Z,93.90
2018-10-21T11:41:34.815Z,93.10
2018-10-21T11:44:02.822Z,93.20
2018-10-21T11:46:30.476Z,93.30
2018-10-21T11:48:58.104Z,93.10
2018-10-21T11:51:25.694Z,92.70
2018-10-21T11:53:53.302Z,92.80
2018-10-21T11:56:20.969Z,91.80
2018-10-21T11:58:48.552Z,90.50
2018-10-21T12:01:16.227Z,90.50
2018-10-21T12:03:43.819Z,91.30
2018-10-21T12:06:11.442Z,90.00
2018-10-21T12:08:39.038Z,89.20
2018-10-21T12:11:06.634Z,88.30
2018-10-21T12:13:34.235Z,87.40
2018-10-21T12:16:01.867Z,87.50
2018-10-21T12:18:29.512Z,89.50
2018-10-21T12:20:57.154Z,86.40
2018-10-21T12:23:24.790Z,87.40
2018-10-21T12:25:52.334Z,87.10
2018-10-21T12:28:20.107Z,86.60
2018-10-21T12:30:47.553Z,86.60
2018-10-21T12:33:15.251Z,85.90
2018-10-21T12:35:42.831Z,86.10
2018-10-21T12:38:10.456Z,85.90
2018-10-21T12:40:38.058Z,85.50
2018-10-21T12:43:05.689Z,85.20
2018-10-21T12:45:33.429Z,85.20
2018-10-21T12:48:00.994Z,82.20
2018-10-21T12:50:28.623Z,81.80
2018-10-21T12:52:56.257Z,82.80
2018-10-21T12:55:23.856Z,81.10
2018-10-21T12:57:51.498Z,80.00
2018-10-21T13:00:19.114Z,80.80
2018-10-21T13:02:46.721Z,76.70
2018-10-21T13:05:14.351Z,73.60
2018-10-21T13:07:41.941Z,72.70
2018-10-21T13:12:37.229Z,68.70
2018-10-21T13:15:05.294Z,72.20
2018-10-21T13:17:32.906Z,71.90
2018-10-21T13:20:00.506Z,71.70
2018-10-21T13:22:28.139Z,72.20
2018-10-21T13:24:55.780Z,71.90
2018-10-21T13:27:23.381Z,71.30
2018-10-21T13:29:51.256Z,70.80
2018-10-21T13:32:18.899Z,69.90
2018-10-21T13:34:46.593Z,70.20
2018-10-21T13:37:14.151Z,68.30
2018-10-21T13:39:41.718Z,68.70
2018-10-21T13:42:09.306Z,69.10
2018-10-21T13:44:36.891Z,67.70
2018-10-21T13:47:04.579Z,68.20
2018-10-21T13:49:32.191Z,67.30
2018-10-21T13:51:59.928Z,65.70
2018-10-21T13:56:54.994Z,64.20
2018-10-21T14:01:50.232Z,62.40
2018-10-21T14:04:17.955Z,62.80
2018-10-21T14:06:45.487Z,63.30
2018-10-21T14:09:13.654Z,63.60
2018-10-21T14:11:41.422Z,64.30
2018-10-21T14:14:11.037Z,64.80
2018-10-21T14:16:38.966Z,62.40
2018-10-21T14:21:34.979Z,61.20
2018-10-21T14:24:03.014Z,63.70
2018-10-21T14:26:30.667Z,59.80
2018-10-21T14:28:58.275Z,59.40
2018-10-21T14:33:53.483Z,58.50
2018-10-21T14:36:21.136Z,58.70
2018-10-21T14:41:16.262Z,58.80
2018-10-21T14:43:43.992Z,59.10
2018-10-21T14:46:11.756Z,60.10
2018-10-21T14:48:39.303Z,59.60
2018-10-21T14:51:06.950Z,60.50
2018-10-21T14:56:02.090Z,59.50
2018-10-21T15:00:57.178Z,60.40
2018-10-21T15:05:52.331Z,60.30
2018-10-21T15:08:19.982Z,61.30
2018-10-21T15:10:47.601Z,60.30
2018-10-21T15:13:15.229Z,61.60
2018-10-21T15:15:42.870Z,61.40
2018-10-21T15:18:10.486Z,61.10
2018-10-21T15:20:38.080Z,61.50
2018-10-21T15:23:05.794Z,61.30
2018-10-21T15:25:33.341Z,62.00
2018-10-21T15:28:00.971Z,62.00
2018-10-21T15:30:28.578Z,62.60
2018-10-21T15:32:56.155Z,63.20
2018-10-21T15:35:23.734Z,63.60
2018-10-21T15:37:51.350Z,63.90
2018-10-21T15:40:19.017Z,64.10
2018-10-21T15:42:46.685Z,65.10
2018-10-21T15:45:14.230Z,64.60
2018-10-21T15:47:41.875Z,64.90
2018-10-21T15:50:09.622Z,65.20
2018-10-21T15:52:37.181Z,65.50
2018-10-21T15:55:05.566Z,65.90
2018-10-21T15:57:33.174Z,66.60
2018-10-21T16:00:00.774Z,65.90
2018-10-21T16:02:28.410Z,66.20
2018-10-21T16:04:56.030Z,66.40
2018-10-21T16:07:23.642Z,67.10
2018-10-21T16:09:51.235Z,67.70
2018-10-21T16:12:18.826Z,66.70
2018-10-21T16:14:46.443Z,67.30
2018-10-21T16:17:14.039Z,67.10
2018-10-21T16:19:41.677Z,69.60
2018-10-21T16:22:09.242Z,68.10
2018-10-21T16:24:36.858Z,68.10
2018-10-21T16:27:04.614Z,71.60
2018-10-21T16:29:32.366Z,71.70
2018-10-21T16:32:00.090Z,71.90
2018-10-21T16:34:27.603Z,68.90
2018-10-21T16:36:55.297Z,69.00
2018-10-21T16:39:22.947Z,69.20
2018-10-21T16:41:50.529Z,68.70
2018-10-21T16:44:18.138Z,69.00
2018-10-21T16:46:45.811Z,69.30
2018-10-21T16:49:13.423Z,69.80
2018-10-21T16:51:41.042Z,70.20
2018-10-21T16:54:08.809Z,70.50
2018-10-21T16:56:36.334Z,71.50
2018-10-21T16:59:04.007Z,72.30
2018-10-21T17:01:31.787Z,72.40
2018-10-21T17:03:59.431Z,73.10
2018-10-21T17:06:27.047Z,74.00
2018-10-21T17:08:54.728Z,74.00
2018-10-21T17:11:22.681Z,74.60
2018-10-21T17:13:50.247Z,75.80
2018-10-21T17:16:17.929Z,76.30
2018-10-21T17:18:45.494Z,77.70
2018-10-21T17:21:13.082Z,78.60
2018-10-21T17:23:40.677Z,77.90
2018-10-21T17:26:08.282Z,78.00
2018-10-21T17:28:35.907Z,77.50
2018-10-21T17:31:03.592Z,78.70
2018-10-21T17:35:58.735Z,87.10
2018-10-21T17:38:26.376Z,84.50
2018-10-21T17:40:53.982Z,83.20
2018-10-21T17:43:21.616Z,81.90
2018-10-21T17:45:49.231Z,82.90
2018-10-21T17:48:16.831Z,83.10
2018-10-21T17:50:44.423Z,83.00
2018-10-21T17:53:12.083Z,83.50
2018-10-21T17:55:39.712Z,85.00
2018-10-21T17:58:07.383Z,85.60
2018-10-21T18:00:34.990Z,85.20
2018-10-21T18:03:02.610Z,87.40
2018-10-21T18:05:30.287Z,86.80
2018-10-21T18:07:57.895Z,88.10
2018-10-21T18:10:25.494Z,89.00
2018-10-21T18:12:53.098Z,87.60
2018-10-21T18:15:20.730Z,89.00
2018-10-21T18:20:16.123Z,90.10
2018-10-21T18:22:43.723Z,90.50
2018-10-21T18:27:39.321Z,90.60
2018-10-21T18:30:08.218Z,90.80
2018-10-21T18:32:35.834Z,90.80
2018-10-21T18:35:03.587Z,91.00
2018-10-21T18:37:31.350Z,91.10
2018-10-21T18:42:26.519Z,91.40
2018-10-21T18:44:54.118Z,91.50
2018-10-21T18:47:21.716Z,91.30
2018-10-21T18:52:16.975Z,91.30
2018-10-21T18:57:12.132Z,91.50
2018-10-21T18:59:39.759Z,91.70
2018-10-21T19:02:07.565Z,91.80
2018-10-21T19:04:35.195Z,91.60
2018-10-21T19:07:03.285Z,91.60
2018-10-21T19:11:58.830Z,92.10
2018-10-21T19:14:26.555Z,92.70
2018-10-21T19:16:54.150Z,92.80
2018-10-21T19:21:49.663Z,92.80
2018-10-21T19:24:17.276Z,92.80
2018-10-21T19:26:44.887Z,93.00
2018-10-21T19:31:40.019Z,93.10
2018-10-21T19:34:07.640Z,93.20
2018-10-21T19:36:35.342Z,93.40
2018-10-21T19:41:30.940Z,93.70
2018-10-21T19:43:58.538Z,93.60
2018-10-21T19:48:53.722Z,93.80
2018-10-21T19:51:21.394Z,93.70
2018-10-21T19:53:48.994Z,93.90
2018-10-21T20:03:39.647Z,94.40
2018-10-21T20:13:30.344Z,94.80
2018-10-21T20:15:57.957Z,94.90
2018-10-21T20:20:53.195Z,95.20
2018-10-21T20:23:21.048Z,97.50
2018-10-21T20:33:11.437Z,95.10
2018-10-21T20:35:38.954Z,95.00
2018-10-21T20:43:01.998Z,95.00
2018-10-21T20:47:57.119Z,95.50
2018-10-21T20:55:20.328Z,95.30
2018-10-21T20:57:47.979Z,95.70
2018-10-21T21:00:15.709Z,95.90
2018-10-21T21:02:43.401Z,95.50
2018-10-21T21:05:11.028Z,96.30
2018-10-21T21:07:38.648Z,96.40
2018-10-21T21:10:06.861Z,96.30
2018-10-21T21:12:34.562Z,96.40
2018-10-21T21:19:57.304Z,96.60
2018-10-21T21:22:24.966Z,96.70
2018-10-21T21:32:15.212Z,97.20
2018-10-21T21:37:10.326Z,97.20
2018-10-21T21:42:05.532Z,97.40
2018-10-21T21:47:00.637Z,97.60
2018-10-21T21:49:28.262Z,97.70
2018-10-21T21:54:23.383Z,98.00
2018-10-21T21:56:50.970Z,97.80
2018-10-21T21:59:18.566Z,98.10
2018-10-21T22:09:10.139Z,98.40
2018-10-21T22:14:05.722Z,98.80
2018-10-21T22:16:33.378Z,98.70
2018-10-21T22:21:28.494Z,98.90
2018-10-21T22:23:56.155Z,99.00
2018-10-21T22:26:23.730Z,99.20
2018-10-21T22:36:14.037Z,98.90
2018-10-21T22:38:41.616Z,98.60
2018-10-21T22:43:36.740Z,98.70
2018-10-21T22:46:04.559Z,98.90
2018-10-21T22:48:32.134Z,99.20
2018-10-21T22:53:27.438Z,98.70
2018-10-21T22:55:55.078Z,98.70
2018-10-21T22:58:22.678Z,98.70
2018-10-21T23:05:45.318Z,98.80
2018-10-21T23:08:12.941Z,98.50
2018-10-21T23:10:40.539Z,98.60
2018-10-21T23:15:35.630Z,98.80
2018-10-21T23:18:03.294Z,98.70
2018-10-21T23:22:58.420Z,99.20
2018-10-21T23:25:26.022Z,99.40
2018-10-21T23:30:21.233Z,99.00
2018-10-21T23:32:48.766Z,99.10
2018-10-21T23:42:38.963Z,99.50
2018-10-21T23:45:06.664Z,99.40
2018-10-21T23:50:01.804Z,99.40
2018-10-21T23:52:29.406Z,99.30
2018-10-21T23:57:24.530Z,99.20
